sensor_id;sensor_type;location;lat;lon;timestamp;temperature;humidity
8261;DHT22;64115;50.170;8.242;2023-07-02T00:01:57;14.10;99.90
8261;DHT22;64115;50.170;8.242;2023-07-02T00:04:23;14.10;99.90
8261;DHT22;64115;50.170;8.242;2023-07-02T00:06:50;14.10;99.90
8261;DHT22;64115;50.170;8.242;2023-07-02T00:09:17;14.00;99.90
8261;DHT22;64115;50.170;8.242;2023-07-02T00:11:45;14.00;99.90
8261;DHT22;64115;50.170;8.242;2023-07-02T00:14:13;13.90;99.90
8261;DHT22;64115;50.170;8.242;2023-07-02T00:16:43;13.80;99.90
8261;DHT22;64115;50.170;8.242;2023-07-02T00:19:13;13.70;99.90
8261;DHT22;64115;50.170;8.242;2023-07-02T00:21:41;13.60;99.90
8261;DHT22;64115;50.170;8.242;2023-07-02T00:24:08;13.60;99.90
8261;DHT22;64115;50.170;8.242;2023-07-02T00:26:36;13.50;99.90
8261;DHT22;64115;50.170;8.242;2023-07-02T00:29:04;13.40;99.90
8261;DHT22;64115;50.170;8.242;2023-07-02T00:31:31;13.30;99.90
8261;DHT22;64115;50.170;8.242;2023-07-02T00:33:58;13.30;99.90
8261;DHT22;64115;50.170;8.242;2023-07-02T00:36:28;13.20;99.90
8261;DHT22;64115;50.170;8.242;2023-07-02T00:38:55;13.20;99.90
8261;DHT22;64115;50.170;8.242;2023-07-02T00:41:23;13.10;99.90
8261;DHT22;64115;50.170;8.242;2023-07-02T00:43:50;13.10;99.90
8261;DHT22;64115;50.170;8.242;2023-07-02T00:46:20;13.00;99.90
8261;DHT22;64115;50.170;8.242;2023-07-02T00:48:48;13.00;99.90
8261;DHT22;64115;50.170;8.242;2023-07-02T00:51:17;12.90;99.90
8261;DHT22;64115;50.170;8.242;2023-07-02T00:53:46;12.80;99.90
8261;DHT22;64115;50.170;8.242;2023-07-02T00:56:16;12.80;99.90
8261;DHT22;64115;50.170;8.242;2023-07-02T00:58:44;12.80;99.90
8261;DHT22;64115;50.170;8.242;2023-07-02T01:01:12;12.70;99.90
8261;DHT22;64115;50.170;8.242;2023-07-02T01:03:50;12.60;99.90
8261;DHT22;64115;50.170;8.242;2023-07-02T01:06:19;12.60;99.90
8261;DHT22;64115;50.170;8.242;2023-07-02T01:08:52;12.50;99.90
8261;DHT22;64115;50.170;8.242;2023-07-02T01:11:22;12.50;99.90
8261;DHT22;64115;50.170;8.242;2023-07-02T01:13:50;12.50;99.90
8261;DHT22;64115;50.170;8.242;2023-07-02T01:16:22;12.40;99.90
8261;DHT22;64115;50.170;8.242;2023-07-02T01:18:51;12.40;99.90
8261;DHT22;64115;50.170;8.242;2023-07-02T01:21:21;12.40;99.90
8261;DHT22;64115;50.170;8.242;2023-07-02T01:23:49;12.30;99.90
8261;DHT22;64115;50.170;8.242;2023-07-02T01:26:16;12.20;99.90
8261;DHT22;64115;50.170;8.242;2023-07-02T01:28:43;12.20;99.90
8261;DHT22;64115;50.170;8.242;2023-07-02T01:31:09;12.10;99.90
8261;DHT22;64115;50.170;8.242;2023-07-02T01:33:36;12.10;99.90
8261;DHT22;64115;50.170;8.242;2023-07-02T01:36:03;12.00;99.90
8261;DHT22;64115;50.170;8.242;2023-07-02T01:38:32;12.00;99.90
8261;DHT22;64115;50.170;8.242;2023-07-02T01:40:58;12.00;99.90
8261;DHT22;64115;50.170;8.242;2023-07-02T01:43:25;12.00;99.90
8261;DHT22;64115;50.170;8.242;2023-07-02T01:45:52;12.00;99.90
8261;DHT22;64115;50.170;8.242;2023-07-02T01:48:21;11.90;99.90
8261;DHT22;64115;50.170;8.242;2023-07-02T01:50:48;11.90;99.90
8261;DHT22;64115;50.170;8.242;2023-07-02T01:53:14;11.90;99.90
8261;DHT22;64115;50.170;8.242;2023-07-02T01:55:42;11.90;99.90
8261;DHT22;64115;50.170;8.242;2023-07-02T01:58:09;11.90;99.90
8261;DHT22;64115;50.170;8.242;2023-07-02T02:00:36;11.90;99.90
8261;DHT22;64115;50.170;8.242;2023-07-02T02:03:04;11.80;99.90
8261;DHT22;64115;50.170;8.242;2023-07-02T02:05:31;11.80;99.90
8261;DHT22;64115;50.170;8.242;2023-07-02T02:07:58;11.80;99.90
8261;DHT22;64115;50.170;8.242;2023-07-02T02:10:24;11.80;99.90
8261;DHT22;64115;50.170;8.242;2023-07-02T02:12:52;11.80;99.90
8261;DHT22;64115;50.170;8.242;2023-07-02T02:15:19;11.70;99.90
8261;DHT22;64115;50.170;8.242;2023-07-02T02:17:46;11.60;99.90
8261;DHT22;64115;50.170;8.242;2023-07-02T02:20:13;11.60;99.90
8261;DHT22;64115;50.170;8.242;2023-07-02T02:22:42;11.50;99.90
8261;DHT22;64115;50.170;8.242;2023-07-02T02:25:09;11.50;99.90
8261;DHT22;64115;50.170;8.242;2023-07-02T02:27:36;11.50;99.90
8261;DHT22;64115;50.170;8.242;2023-07-02T02:30:05;11.50;99.90
8261;DHT22;64115;50.170;8.242;2023-07-02T02:32:33;11.50;99.90
8261;DHT22;64115;50.170;8.242;2023-07-02T02:35:00;11.50;99.90
8261;DHT22;64115;50.170;8.242;2023-07-02T02:37:27;11.50;99.90
8261;DHT22;64115;50.170;8.242;2023-07-02T02:39:55;11.50;99.90
8261;DHT22;64115;50.170;8.242;2023-07-02T02:42:24;11.60;99.90
8261;DHT22;64115;50.170;8.242;2023-07-02T02:44:51;11.70;99.90
8261;DHT22;64115;50.170;8.242;2023-07-02T02:47:19;11.70;99.90
8261;DHT22;64115;50.170;8.242;2023-07-02T02:49:46;11.80;99.90
8261;DHT22;64115;50.170;8.242;2023-07-02T02:52:12;11.90;99.90
8261;DHT22;64115;50.170;8.242;2023-07-02T02:54:40;12.00;99.90
8261;DHT22;64115;50.170;8.242;2023-07-02T02:57:06;12.00;99.90
8261;DHT22;64115;50.170;8.242;2023-07-02T02:59:33;12.00;99.90
8261;DHT22;64115;50.170;8.242;2023-07-02T03:02:00;12.10;99.90
8261;DHT22;64115;50.170;8.242;2023-07-02T03:04:28;12.10;99.90
8261;DHT22;64115;50.170;8.242;2023-07-02T03:06:55;12.10;99.90
8261;DHT22;64115;50.170;8.242;2023-07-02T03:09:22;12.20;99.90
8261;DHT22;64115;50.170;8.242;2023-07-02T03:11:48;12.20;99.90
8261;DHT22;64115;50.170;8.242;2023-07-02T03:14:16;12.20;99.90
8261;DHT22;64115;50.170;8.242;2023-07-02T03:16:43;12.20;99.90
8261;DHT22;64115;50.170;8.242;2023-07-02T03:19:10;12.20;99.90
8261;DHT22;64115;50.170;8.242;2023-07-02T03:21:41;12.20;99.90
8261;DHT22;64115;50.170;8.242;2023-07-02T03:24:08;12.30;99.90
8261;DHT22;64115;50.170;8.242;2023-07-02T03:26:37;12.30;99.90
8261;DHT22;64115;50.170;8.242;2023-07-02T03:29:04;12.30;99.90
8261;DHT22;64115;50.170;8.242;2023-07-02T03:31:30;12.30;99.90
8261;DHT22;64115;50.170;8.242;2023-07-02T03:33:57;12.30;99.90
8261;DHT22;64115;50.170;8.242;2023-07-02T03:36:26;12.30;99.90
8261;DHT22;64115;50.170;8.242;2023-07-02T03:38:54;12.20;99.90
8261;DHT22;64115;50.170;8.242;2023-07-02T03:41:21;12.20;99.90
8261;DHT22;64115;50.170;8.242;2023-07-02T03:43:47;12.20;99.90
8261;DHT22;64115;50.170;8.242;2023-07-02T03:46:14;12.10;99.90
8261;DHT22;64115;50.170;8.242;2023-07-02T03:48:41;12.10;99.90
8261;DHT22;64115;50.170;8.242;2023-07-02T03:51:08;12.10;99.90
8261;DHT22;64115;50.170;8.242;2023-07-02T03:53:34;12.10;99.90
8261;DHT22;64115;50.170;8.242;2023-07-02T03:56:03;12.10;99.90
8261;DHT22;64115;50.170;8.242;2023-07-02T03:58:29;12.20;99.90
8261;DHT22;64115;50.170;8.242;2023-07-02T04:00:56;12.20;99.90
8261;DHT22;64115;50.170;8.242;2023-07-02T04:03:23;12.20;99.90
8261;DHT22;64115;50.170;8.242;2023-07-02T04:05:50;12.30;99.90
8261;DHT22;64115;50.170;8.242;2023-07-02T04:08:16;12.30;99.90
8261;DHT22;64115;50.170;8.242;2023-07-02T04:10:43;12.40;99.90
8261;DHT22;64115;50.170;8.242;2023-07-02T04:13:11;12.50;99.90
8261;DHT22;64115;50.170;8.242;2023-07-02T04:15:38;12.50;99.90
8261;DHT22;64115;50.170;8.242;2023-07-02T04:18:05;12.60;99.90
8261;DHT22;64115;50.170;8.242;2023-07-02T04:20:32;12.60;99.90
8261;DHT22;64115;50.170;8.242;2023-07-02T04:22:58;12.60;99.90
8261;DHT22;64115;50.170;8.242;2023-07-02T04:25:25;12.70;99.90
8261;DHT22;64115;50.170;8.242;2023-07-02T04:27:52;12.70;99.90
8261;DHT22;64115;50.170;8.242;2023-07-02T04:30:23;12.70;99.90
8261;DHT22;64115;50.170;8.242;2023-07-02T04:32:50;12.70;99.90
8261;DHT22;64115;50.170;8.242;2023-07-02T04:35:17;12.70;99.90
8261;DHT22;64115;50.170;8.242;2023-07-02T04:37:44;12.70;99.90
8261;DHT22;64115;50.170;8.242;2023-07-02T04:40:10;12.80;99.90
8261;DHT22;64115;50.170;8.242;2023-07-02T04:42:38;12.80;99.90
8261;DHT22;64115;50.170;8.242;2023-07-02T04:45:06;12.90;99.90
8261;DHT22;64115;50.170;8.242;2023-07-02T04:47:35;12.90;99.90
8261;DHT22;64115;50.170;8.242;2023-07-02T04:50:02;12.90;99.90
8261;DHT22;64115;50.170;8.242;2023-07-02T04:52:29;12.90;99.90
8261;DHT22;64115;50.170;8.242;2023-07-02T04:54:55;13.00;99.90
8261;DHT22;64115;50.170;8.242;2023-07-02T04:57:22;13.10;99.90
8261;DHT22;64115;50.170;8.242;2023-07-02T04:59:49;13.20;99.90
8261;DHT22;64115;50.170;8.242;2023-07-02T05:02:16;13.30;99.90
8261;DHT22;64115;50.170;8.242;2023-07-02T05:04:44;13.30;99.90
8261;DHT22;64115;50.170;8.242;2023-07-02T05:07:10;13.40;99.90
8261;DHT22;64115;50.170;8.242;2023-07-02T05:09:37;13.40;99.90
8261;DHT22;64115;50.170;8.242;2023-07-02T05:12:04;13.50;99.90
8261;DHT22;64115;50.170;8.242;2023-07-02T05:14:33;13.60;99.90
8261;DHT22;64115;50.170;8.242;2023-07-02T05:17:03;13.60;99.90
8261;DHT22;64115;50.170;8.242;2023-07-02T05:19:30;13.70;99.90
8261;DHT22;64115;50.170;8.242;2023-07-02T05:21:58;13.80;99.90
8261;DHT22;64115;50.170;8.242;2023-07-02T05:24:25;13.80;99.90
8261;DHT22;64115;50.170;8.242;2023-07-02T05:26:51;13.90;99.90
8261;DHT22;64115;50.170;8.242;2023-07-02T05:29:19;14.00;99.90
8261;DHT22;64115;50.170;8.242;2023-07-02T05:31:45;14.20;99.90
8261;DHT22;64115;50.170;8.242;2023-07-02T05:34:12;14.30;99.90
8261;DHT22;64115;50.170;8.242;2023-07-02T05:36:39;14.40;99.90
8261;DHT22;64115;50.170;8.242;2023-07-02T05:39:07;14.40;99.90
8261;DHT22;64115;50.170;8.242;2023-07-02T05:41:34;14.50;99.90
8261;DHT22;64115;50.170;8.242;2023-07-02T05:44:00;14.60;99.90
8261;DHT22;64115;50.170;8.242;2023-07-02T05:46:27;14.70;99.90
8261;DHT22;64115;50.170;8.242;2023-07-02T05:48:54;14.80;99.90
8261;DHT22;64115;50.170;8.242;2023-07-02T05:51:23;14.90;99.90
8261;DHT22;64115;50.170;8.242;2023-07-02T05:53:50;15.00;99.90
8261;DHT22;64115;50.170;8.242;2023-07-02T05:56:20;15.10;99.90
8261;DHT22;64115;50.170;8.242;2023-07-02T05:58:46;15.10;99.90
8261;DHT22;64115;50.170;8.242;2023-07-02T06:01:13;15.30;99.90
8261;DHT22;64115;50.170;8.242;2023-07-02T06:03:40;15.40;99.90
8261;DHT22;64115;50.170;8.242;2023-07-02T06:06:07;15.40;99.90
8261;DHT22;64115;50.170;8.242;2023-07-02T06:08:37;15.40;99.90
8261;DHT22;64115;50.170;8.242;2023-07-02T06:11:04;15.50;99.90
8261;DHT22;64115;50.170;8.242;2023-07-02T06:13:32;15.50;99.90
8261;DHT22;64115;50.170;8.242;2023-07-02T06:15:59;15.60;99.90
8261;DHT22;64115;50.170;8.242;2023-07-02T06:18:25;15.70;99.90
8261;DHT22;64115;50.170;8.242;2023-07-02T06:20:52;15.80;99.90
8261;DHT22;64115;50.170;8.242;2023-07-02T06:23:19;15.80;99.90
8261;DHT22;64115;50.170;8.242;2023-07-02T06:25:46;15.90;99.90
8261;DHT22;64115;50.170;8.242;2023-07-02T06:28:13;16.00;99.90
8261;DHT22;64115;50.170;8.242;2023-07-02T06:30:41;16.00;99.90
8261;DHT22;64115;50.170;8.242;2023-07-02T06:33:07;16.20;99.90
8261;DHT22;64115;50.170;8.242;2023-07-02T06:35:34;16.20;99.90
8261;DHT22;64115;50.170;8.242;2023-07-02T06:38:01;16.30;99.90
8261;DHT22;64115;50.170;8.242;2023-07-02T06:40:30;16.50;99.90
8261;DHT22;64115;50.170;8.242;2023-07-02T06:42:57;16.70;99.90
8261;DHT22;64115;50.170;8.242;2023-07-02T06:45:24;16.70;99.90
8261;DHT22;64115;50.170;8.242;2023-07-02T06:47:52;16.70;99.90
8261;DHT22;64115;50.170;8.242;2023-07-02T06:50:19;16.60;99.90
8261;DHT22;64115;50.170;8.242;2023-07-02T06:52:45;16.70;99.90
8261;DHT22;64115;50.170;8.242;2023-07-02T06:55:12;16.50;99.90
8261;DHT22;64115;50.170;8.242;2023-07-02T06:57:42;16.40;99.90
8261;DHT22;64115;50.170;8.242;2023-07-02T07:00:10;16.20;99.90
8261;DHT22;64115;50.170;8.242;2023-07-02T07:02:37;16.10;99.90
8261;DHT22;64115;50.170;8.242;2023-07-02T07:05:06;16.10;99.90
8261;DHT22;64115;50.170;8.242;2023-07-02T07:07:34;16.10;99.90
8261;DHT22;64115;50.170;8.242;2023-07-02T07:10:00;16.20;99.90
8261;DHT22;64115;50.170;8.242;2023-07-02T07:12:27;16.30;99.90
8261;DHT22;64115;50.170;8.242;2023-07-02T07:14:54;16.20;99.90
8261;DHT22;64115;50.170;8.242;2023-07-02T07:17:20;16.30;99.90
8261;DHT22;64115;50.170;8.242;2023-07-02T07:19:47;16.40;99.90
8261;DHT22;64115;50.170;8.242;2023-07-02T07:22:16;16.60;99.90
8261;DHT22;64115;50.170;8.242;2023-07-02T07:24:43;16.90;99.90
8261;DHT22;64115;50.170;8.242;2023-07-02T07:27:10;17.40;99.90
8261;DHT22;64115;50.170;8.242;2023-07-02T07:29:36;18.00;99.90
8261;DHT22;64115;50.170;8.242;2023-07-02T07:32:04;18.20;99.90
8261;DHT22;64115;50.170;8.242;2023-07-02T07:34:31;18.30;99.90
8261;DHT22;64115;50.170;8.242;2023-07-02T07:36:58;18.40;99.90
8261;DHT22;64115;50.170;8.242;2023-07-02T07:39:26;18.40;99.90
8261;DHT22;64115;50.170;8.242;2023-07-02T07:41:52;18.50;99.90
8261;DHT22;64115;50.170;8.242;2023-07-02T07:44:19;18.50;99.90
8261;DHT22;64115;50.170;8.242;2023-07-02T07:46:49;18.40;99.90
8261;DHT22;64115;50.170;8.242;2023-07-02T07:49:15;18.60;99.90
8261;DHT22;64115;50.170;8.242;2023-07-02T07:51:44;18.90;99.90
8261;DHT22;64115;50.170;8.242;2023-07-02T07:54:10;19.20;99.90
8261;DHT22;64115;50.170;8.242;2023-07-02T07:56:38;19.40;99.90
8261;DHT22;64115;50.170;8.242;2023-07-02T07:59:07;19.70;99.90
8261;DHT22;64115;50.170;8.242;2023-07-02T08:01:34;19.90;99.90
8261;DHT22;64115;50.170;8.242;2023-07-02T08:04:01;19.90;99.90
8261;DHT22;64115;50.170;8.242;2023-07-02T08:06:27;20.00;99.90
8261;DHT22;64115;50.170;8.242;2023-07-02T08:08:54;19.90;99.90
8261;DHT22;64115;50.170;8.242;2023-07-02T08:11:21;19.90;99.90
8261;DHT22;64115;50.170;8.242;2023-07-02T08:13:49;19.90;99.90
8261;DHT22;64115;50.170;8.242;2023-07-02T08:16:16;20.10;99.90
8261;DHT22;64115;50.170;8.242;2023-07-02T08:18:42;20.00;99.90
8261;DHT22;64115;50.170;8.242;2023-07-02T08:21:09;19.60;99.90
8261;DHT22;64115;50.170;8.242;2023-07-02T08:23:36;19.50;99.90
8261;DHT22;64115;50.170;8.242;2023-07-02T08:26:03;19.90;99.90
8261;DHT22;64115;50.170;8.242;2023-07-02T08:28:30;20.20;99.90
8261;DHT22;64115;50.170;8.242;2023-07-02T08:30:58;20.30;99.90
8261;DHT22;64115;50.170;8.242;2023-07-02T08:33:24;20.50;99.90
8261;DHT22;64115;50.170;8.242;2023-07-02T08:35:51;20.50;99.90
8261;DHT22;64115;50.170;8.242;2023-07-02T08:38:18;20.30;99.90
8261;DHT22;64115;50.170;8.242;2023-07-02T08:40:45;20.20;99.90
8261;DHT22;64115;50.170;8.242;2023-07-02T08:43:12;20.10;99.90
8261;DHT22;64115;50.170;8.242;2023-07-02T08:45:40;19.80;99.90
8261;DHT22;64115;50.170;8.242;2023-07-02T08:48:09;19.60;99.90
8261;DHT22;64115;50.170;8.242;2023-07-02T08:50:36;19.60;99.90
8261;DHT22;64115;50.170;8.242;2023-07-02T08:53:03;19.50;99.90
8261;DHT22;64115;50.170;8.242;2023-07-02T08:55:30;19.60;99.90
8261;DHT22;64115;50.170;8.242;2023-07-02T08:57:57;19.40;99.90
8261;DHT22;64115;50.170;8.242;2023-07-02T09:00:26;19.20;99.90
8261;DHT22;64115;50.170;8.242;2023-07-02T09:02:53;18.80;99.90
8261;DHT22;64115;50.170;8.242;2023-07-02T09:05:21;18.50;99.90
8261;DHT22;64115;50.170;8.242;2023-07-02T09:07:48;18.50;99.90
8261;DHT22;64115;50.170;8.242;2023-07-02T09:10:26;18.90;99.90
8261;DHT22;64115;50.170;8.242;2023-07-02T09:13:03;19.10;99.90
8261;DHT22;64115;50.170;8.242;2023-07-02T09:15:35;19.40;99.90
8261;DHT22;64115;50.170;8.242;2023-07-02T09:18:02;19.80;99.90
8261;DHT22;64115;50.170;8.242;2023-07-02T09:20:34;20.10;99.90
8261;DHT22;64115;50.170;8.242;2023-07-02T09:23:00;20.20;99.90
8261;DHT22;64115;50.170;8.242;2023-07-02T09:25:34;20.20;99.90
8261;DHT22;64115;50.170;8.242;2023-07-02T09:28:01;20.30;99.90
8261;DHT22;64115;50.170;8.242;2023-07-02T09:30:27;20.50;99.90
8261;DHT22;64115;50.170;8.242;2023-07-02T09:32:54;21.10;99.90
8261;DHT22;64115;50.170;8.242;2023-07-02T09:35:34;21.50;99.90
8261;DHT22;64115;50.170;8.242;2023-07-02T09:38:00;21.80;99.90
8261;DHT22;64115;50.170;8.242;2023-07-02T09:40:27;22.00;99.90
8261;DHT22;64115;50.170;8.242;2023-07-02T09:42:55;21.90;99.90
8261;DHT22;64115;50.170;8.242;2023-07-02T09:45:23;21.40;99.90
8261;DHT22;64115;50.170;8.242;2023-07-02T09:47:51;20.90;99.90
8261;DHT22;64115;50.170;8.242;2023-07-02T09:50:23;20.80;99.90
8261;DHT22;64115;50.170;8.242;2023-07-02T09:52:52;20.70;99.90
8261;DHT22;64115;50.170;8.242;2023-07-02T09:55:19;20.40;99.90
8261;DHT22;64115;50.170;8.242;2023-07-02T09:57:47;20.30;99.90
8261;DHT22;64115;50.170;8.242;2023-07-02T10:00:15;20.00;99.90
8261;DHT22;64115;50.170;8.242;2023-07-02T10:02:48;19.70;99.90
8261;DHT22;64115;50.170;8.242;2023-07-02T10:05:25;20.00;99.90
8261;DHT22;64115;50.170;8.242;2023-07-02T10:07:54;20.20;99.90
8261;DHT22;64115;50.170;8.242;2023-07-02T10:10:28;20.60;99.90
8261;DHT22;64115;50.170;8.242;2023-07-02T10:12:56;21.10;99.90
8261;DHT22;64115;50.170;8.242;2023-07-02T10:15:27;21.30;99.90
8261;DHT22;64115;50.170;8.242;2023-07-02T10:17:58;21.50;99.90
8261;DHT22;64115;50.170;8.242;2023-07-02T10:20:32;21.50;99.90
8261;DHT22;64115;50.170;8.242;2023-07-02T10:23:01;21.20;99.90
8261;DHT22;64115;50.170;8.242;2023-07-02T10:25:30;21.30;99.90
8261;DHT22;64115;50.170;8.242;2023-07-02T10:27:57;21.30;99.90
8261;DHT22;64115;50.170;8.242;2023-07-02T10:30:32;20.90;99.90
8261;DHT22;64115;50.170;8.242;2023-07-02T10:33:09;20.70;99.90
8261;DHT22;64115;50.170;8.242;2023-07-02T10:35:37;20.40;99.90
8261;DHT22;64115;50.170;8.242;2023-07-02T10:38:12;20.30;99.90
8261;DHT22;64115;50.170;8.242;2023-07-02T10:40:41;20.20;99.90
8261;DHT22;64115;50.170;8.242;2023-07-02T10:43:08;20.20;99.90
8261;DHT22;64115;50.170;8.242;2023-07-02T10:45:35;20.50;99.90
8261;DHT22;64115;50.170;8.242;2023-07-02T10:48:03;20.70;99.90
8261;DHT22;64115;50.170;8.242;2023-07-02T10:50:31;21.00;99.90
8261;DHT22;64115;50.170;8.242;2023-07-02T10:52:58;21.30;99.90
8261;DHT22;64115;50.170;8.242;2023-07-02T10:55:27;21.50;99.90
8261;DHT22;64115;50.170;8.242;2023-07-02T10:58:04;21.30;99.90
8261;DHT22;64115;50.170;8.242;2023-07-02T11:00:31;21.40;99.90
8261;DHT22;64115;50.170;8.242;2023-07-02T11:02:58;21.30;99.90
8261;DHT22;64115;50.170;8.242;2023-07-02T11:05:25;21.40;99.90
8261;DHT22;64115;50.170;8.242;2023-07-02T11:07:52;21.40;99.90
8261;DHT22;64115;50.170;8.242;2023-07-02T11:10:23;21.60;99.90
8261;DHT22;64115;50.170;8.242;2023-07-02T11:12:51;21.80;99.90
8261;DHT22;64115;50.170;8.242;2023-07-02T11:15:18;22.20;99.90
8261;DHT22;64115;50.170;8.242;2023-07-02T11:17:45;22.60;99.90
8261;DHT22;64115;50.170;8.242;2023-07-02T11:20:14;23.00;99.90
8261;DHT22;64115;50.170;8.242;2023-07-02T11:22:41;23.10;99.90
8261;DHT22;64115;50.170;8.242;2023-07-02T11:25:16;23.10;99.90
8261;DHT22;64115;50.170;8.242;2023-07-02T11:27:44;23.00;99.90
8261;DHT22;64115;50.170;8.242;2023-07-02T11:30:13;22.90;99.90
8261;DHT22;64115;50.170;8.242;2023-07-02T11:32:50;22.60;99.90
8261;DHT22;64115;50.170;8.242;2023-07-02T11:35:17;22.10;99.90
8261;DHT22;64115;50.170;8.242;2023-07-02T11:37:47;21.60;99.90
8261;DHT22;64115;50.170;8.242;2023-07-02T11:40:16;21.50;99.90
8261;DHT22;64115;50.170;8.242;2023-07-02T11:42:43;21.70;99.90
8261;DHT22;64115;50.170;8.242;2023-07-02T11:45:11;22.10;99.90
8261;DHT22;64115;50.170;8.242;2023-07-02T11:47:38;22.50;99.90
8261;DHT22;64115;50.170;8.242;2023-07-02T11:50:06;22.60;99.90
8261;DHT22;64115;50.170;8.242;2023-07-02T11:52:32;22.50;99.90
8261;DHT22;64115;50.170;8.242;2023-07-02T11:54:59;22.30;99.90
8261;DHT22;64115;50.170;8.242;2023-07-02T11:57:26;21.90;99.90
8261;DHT22;64115;50.170;8.242;2023-07-02T11:59:53;21.40;99.90
8261;DHT22;64115;50.170;8.242;2023-07-02T12:02:21;21.20;99.90
8261;DHT22;64115;50.170;8.242;2023-07-02T12:04:47;21.50;99.90
8261;DHT22;64115;50.170;8.242;2023-07-02T12:07:14;22.10;99.90
8261;DHT22;64115;50.170;8.242;2023-07-02T12:09:41;22.60;99.90
8261;DHT22;64115;50.170;8.242;2023-07-02T12:12:08;22.70;99.90
8261;DHT22;64115;50.170;8.242;2023-07-02T12:14:35;22.70;99.90
8261;DHT22;64115;50.170;8.242;2023-07-02T12:17:03;22.90;99.80
8261;DHT22;64115;50.170;8.242;2023-07-02T12:19:31;22.80;99.20
8261;DHT22;64115;50.170;8.242;2023-07-02T12:21:58;22.60;98.90
8261;DHT22;64115;50.170;8.242;2023-07-02T12:24:24;22.30;99.30
8261;DHT22;64115;50.170;8.242;2023-07-02T12:26:51;22.10;99.90
8261;DHT22;64115;50.170;8.242;2023-07-02T12:29:18;21.70;99.90
8261;DHT22;64115;50.170;8.242;2023-07-02T12:31:46;21.50;99.90
8261;DHT22;64115;50.170;8.242;2023-07-02T12:34:13;21.20;99.90
8261;DHT22;64115;50.170;8.242;2023-07-02T12:36:42;20.90;99.90
8261;DHT22;64115;50.170;8.242;2023-07-02T12:39:09;20.80;99.90
8261;DHT22;64115;50.170;8.242;2023-07-02T12:41:37;20.90;99.90
8261;DHT22;64115;50.170;8.242;2023-07-02T12:44:04;21.20;99.90
8261;DHT22;64115;50.170;8.242;2023-07-02T12:46:31;21.30;99.90
8261;DHT22;64115;50.170;8.242;2023-07-02T12:48:57;21.40;99.90
8261;DHT22;64115;50.170;8.242;2023-07-02T12:51:24;21.40;99.90
8261;DHT22;64115;50.170;8.242;2023-07-02T12:53:52;21.50;99.90
8261;DHT22;64115;50.170;8.242;2023-07-02T12:56:19;21.50;99.90
8261;DHT22;64115;50.170;8.242;2023-07-02T12:58:46;21.50;99.90
8261;DHT22;64115;50.170;8.242;2023-07-02T13:01:13;21.40;99.70
8261;DHT22;64115;50.170;8.242;2023-07-02T13:03:45;21.40;99.90
8261;DHT22;64115;50.170;8.242;2023-07-02T13:06:11;21.50;99.70
8261;DHT22;64115;50.170;8.242;2023-07-02T13:08:38;21.50;99.90
8261;DHT22;64115;50.170;8.242;2023-07-02T13:11:07;21.70;99.90
8261;DHT22;64115;50.170;8.242;2023-07-02T13:13:34;21.60;99.20
8261;DHT22;64115;50.170;8.242;2023-07-02T13:16:01;21.70;99.90
8261;DHT22;64115;50.170;8.242;2023-07-02T13:18:28;21.60;99.00
8261;DHT22;64115;50.170;8.242;2023-07-02T13:20:55;21.50;99.90
8261;DHT22;64115;50.170;8.242;2023-07-02T13:23:21;21.40;99.90
8261;DHT22;64115;50.170;8.242;2023-07-02T13:25:48;21.50;99.90
8261;DHT22;64115;50.170;8.242;2023-07-02T13:28:16;21.70;99.90
8261;DHT22;64115;50.170;8.242;2023-07-02T13:30:43;21.90;99.90
8261;DHT22;64115;50.170;8.242;2023-07-02T13:33:10;22.10;99.90
8261;DHT22;64115;50.170;8.242;2023-07-02T13:35:36;22.30;99.90
8261;DHT22;64115;50.170;8.242;2023-07-02T13:38:03;22.30;99.90
8261;DHT22;64115;50.170;8.242;2023-07-02T13:40:30;22.40;99.90
8261;DHT22;64115;50.170;8.242;2023-07-02T13:42:57;22.30;99.80
8261;DHT22;64115;50.170;8.242;2023-07-02T13:45:25;22.10;99.30
8261;DHT22;64115;50.170;8.242;2023-07-02T13:47:52;21.90;99.90
8261;DHT22;64115;50.170;8.242;2023-07-02T13:50:19;21.90;99.90
8261;DHT22;64115;50.170;8.242;2023-07-02T13:52:46;22.20;99.90
8261;DHT22;64115;50.170;8.242;2023-07-02T13:55:13;22.30;99.80
8261;DHT22;64115;50.170;8.242;2023-07-02T13:57:40;22.30;99.70
8261;DHT22;64115;50.170;8.242;2023-07-02T14:00:09;22.40;99.90
8261;DHT22;64115;50.170;8.242;2023-07-02T14:02:36;22.10;99.70
8261;DHT22;64115;50.170;8.242;2023-07-02T14:05:03;22.00;99.90
8261;DHT22;64115;50.170;8.242;2023-07-02T14:07:30;22.00;99.90
8261;DHT22;64115;50.170;8.242;2023-07-02T14:09:57;21.90;99.90
8261;DHT22;64115;50.170;8.242;2023-07-02T14:12:24;21.80;99.90
8261;DHT22;64115;50.170;8.242;2023-07-02T14:14:50;22.00;99.90
8261;DHT22;64115;50.170;8.242;2023-07-02T14:17:18;22.30;99.30
8261;DHT22;64115;50.170;8.242;2023-07-02T14:19:45;22.70;99.30
8261;DHT22;64115;50.170;8.242;2023-07-02T14:22:12;22.80;98.20
8261;DHT22;64115;50.170;8.242;2023-07-02T14:24:39;23.00;97.30
8261;DHT22;64115;50.170;8.242;2023-07-02T14:27:05;23.00;97.90
8261;DHT22;64115;50.170;8.242;2023-07-02T14:29:33;22.90;98.20
8261;DHT22;64115;50.170;8.242;2023-07-02T14:32:00;22.80;98.70
8261;DHT22;64115;50.170;8.242;2023-07-02T14:34:28;22.80;97.50
8261;DHT22;64115;50.170;8.242;2023-07-02T14:36:55;22.80;98.70
8261;DHT22;64115;50.170;8.242;2023-07-02T14:39:22;23.00;97.80
8261;DHT22;64115;50.170;8.242;2023-07-02T14:41:49;23.30;98.00
8261;DHT22;64115;50.170;8.242;2023-07-02T14:44:16;23.50;98.20
8261;DHT22;64115;50.170;8.242;2023-07-02T14:46:43;23.30;97.50
8261;DHT22;64115;50.170;8.242;2023-07-02T14:49:10;22.90;98.20
8261;DHT22;64115;50.170;8.242;2023-07-02T14:51:38;22.50;98.40
8261;DHT22;64115;50.170;8.242;2023-07-02T14:54:05;22.20;98.10
8261;DHT22;64115;50.170;8.242;2023-07-02T14:56:32;22.00;98.40
8261;DHT22;64115;50.170;8.242;2023-07-02T14:58:58;22.00;98.50
8261;DHT22;64115;50.170;8.242;2023-07-02T15:01:25;22.20;97.00
8261;DHT22;64115;50.170;8.242;2023-07-02T15:03:52;22.40;98.60
8261;DHT22;64115;50.170;8.242;2023-07-02T15:06:21;22.60;98.30
8261;DHT22;64115;50.170;8.242;2023-07-02T15:08:49;22.70;97.50
8261;DHT22;64115;50.170;8.242;2023-07-02T15:11:17;22.60;97.80
8261;DHT22;64115;50.170;8.242;2023-07-02T15:13:45;22.30;97.40
8261;DHT22;64115;50.170;8.242;2023-07-02T15:16:12;22.00;98.30
8261;DHT22;64115;50.170;8.242;2023-07-02T15:18:40;21.90;99.10
8261;DHT22;64115;50.170;8.242;2023-07-02T15:21:07;21.90;98.50
8261;DHT22;64115;50.170;8.242;2023-07-02T15:23:34;21.90;97.60
8261;DHT22;64115;50.170;8.242;2023-07-02T15:26:04;21.80;98.20
8261;DHT22;64115;50.170;8.242;2023-07-02T15:28:31;21.90;97.80
8261;DHT22;64115;50.170;8.242;2023-07-02T15:31:02;21.80;98.30
8261;DHT22;64115;50.170;8.242;2023-07-02T15:33:29;21.70;97.20
8261;DHT22;64115;50.170;8.242;2023-07-02T15:35:58;21.70;98.10
8261;DHT22;64115;50.170;8.242;2023-07-02T15:38:26;21.60;97.60
8261;DHT22;64115;50.170;8.242;2023-07-02T15:41:06;21.60;97.90
8261;DHT22;64115;50.170;8.242;2023-07-02T15:43:33;21.70;98.60
8261;DHT22;64115;50.170;8.242;2023-07-02T15:45:59;22.20;98.10
8261;DHT22;64115;50.170;8.242;2023-07-02T15:48:26;22.80;96.20